Weather at Al Battikh Airfield

Public forecast

Using degrees Celsius for public forecast. Weather courtesy of forecast.io.

Closest aviation weather report (METAR) to Al Battikh Airfield

Closest report is Port Said International Airport, 65.0 nm (120.3 km) E.

2024/06/16 02:00 (retrieved 1 hour ago)

HEPS 160200Z 31007KT 9999 27/21 Q1008 NOSIG

Closest aviation forecast (TAF) to Al Battikh Airfield

Forecast is more than 12 hours old.

Closest forecast is Beirut Rafic Hariri International Airport, 272.4 nm (504.4 km) NE.

2024/06/15 12:41 Ammendment (retrieved 14 hours ago)

TAF AMD OLBA 151232Z 1512/1618 24014KT 8000 FEW026 PROB40 TEMPO 1516/1606 5000 BR BECMG 1518/1521 14004KT BECMG 1606/1609 22010KT SCT026